| time (UTC) | Packet |
| 20260506194942 | KO5MO-4>APRS,TCPIP*,qAS,KO5MO-3:=3333.69N/11210.39W_337.5/007g007t087r000p...P...h19b100755N1 - Room Humidity: 20.21% Room Temp:83.69 F |
| 20260506195442 | KO5MO-4>APRS,TCPIP*,qAS,KO5MO-3:=3333.69N/11210.39W_112.5/002g002t086r000p...P...h19b100755N1 - Room Humidity: 20.21% Room Temp:83.69 F |
| 20260506200942 | KO5MO-4>APRS,TCPIP*,qAS,KO5MO-3:=3333.69N/11210.39W_112.5/003g003t086r000p...P...h18b100755N1 - Room Humidity: 20.21% Room Temp:83.69 F |
| 20260506201942 | KO5MO-4>APRS,TCPIP*,qAS,KO5MO-3:=3333.69N/11210.39W_292.5/003g006t089r000p...P...h18b100755N1 - Room Humidity: 20.21% Room Temp:83.69 F |
| 20260506204942 | KO5MO-4>APRS,TCPIP*,qAS,KO5MO-3:=3333.69N/11210.39W_112.5/005g004t085r000p...P...h19b100755N1 - Room Humidity: 20.21% Room Temp:83.69 F |
| 20260506205442 | KO5MO-4>APRS,TCPIP*,qAS,KO5MO-3:=3333.69N/11210.39W_202.5/003g004t086r000p...P...h19b100755N1 - Room Humidity: 20.21% Room Temp:83.69 F |
| 20260506205942 | KO5MO-4>APRS,TCPIP*,qAS,KO5MO-3:=3333.69N/11210.39W_202.5/002g005t085r000p...P...h19b100755N1 - Room Humidity: 20.21% Room Temp:83.69 F |
| 20260506212442 | KO5MO-4>APRS,TCPIP*,qAS,KO5MO-3:=3333.69N/11210.39W_112.5/008g004t086r000p...P...h19b100755N1 - Room Humidity: 20.21% Room Temp:83.69 F |
| 20260506213942 | KO5MO-4>APRS,TCPIP*,qAS,KO5MO-3:=3333.69N/11210.39W_247.5/005g004t089r000p...P...h17b100755N1 - Room Humidity: 20.21% Room Temp:83.69 F |
| 20260506214942 | KO5MO-4>APRS,TCPIP*,qAS,KO5MO-3:=3333.69N/11210.39W_112.5/002g002t086r000p...P...h19b100755N1 - Room Humidity: 20.21% Room Temp:83.69 F |
| 20260506215442 | KO5MO-4>APRS,TCPIP*,qAS,KO5MO-3:=3333.69N/11210.39W_112.5/005g004t087r000p...P...h18b100755N1 - Room Humidity: 20.21% Room Temp:83.69 F |
| 20260506221442 | KO5MO-4>APRS,TCPIP*,qAS,KO5MO-3:=3333.69N/11210.39W_292.5/007g005t089r000p...P...h17b100755N1 - Room Humidity: 20.21% Room Temp:83.69 F |
| 20260506221942 | KO5MO-4>APRS,TCPIP*,qAS,KO5MO-3:=3333.69N/11210.39W_337.5/006g004t088r000p...P...h18b100755N1 - Room Humidity: 20.21% Room Temp:83.69 F |
| 20260506223942 | KO5MO-4>APRS,TCPIP*,qAS,KO5MO-3:=3333.69N/11210.39W_157.5/001g002t089r000p...P...h18b100755N1 - Room Humidity: 20.21% Room Temp:83.69 F |
| 20260506224442 | KO5MO-4>APRS,TCPIP*,qAS,KO5MO-3:=3333.69N/11210.39W_112.5/003g004t089r000p...P...h18b100755N1 - Room Humidity: 20.21% Room Temp:83.69 F |
| 20260506232942 | KO5MO-4>APRS,TCPIP*,qAS,KO5MO-3:=3333.69N/11210.39W_157.5/001g001t086r000p...P...h18b100755N1 - Room Humidity: 20.21% Room Temp:83.69 F |
| 20260506233942 | KO5MO-4>APRS,TCPIP*,qAS,KO5MO-3:=3333.69N/11210.39W_247.5/005g005t090r000p...P...h17b100755N1 - Room Humidity: 20.21% Room Temp:83.69 F |
| 20260506234442 | KO5MO-4>APRS,TCPIP*,qAS,KO5MO-3:=3333.69N/11210.39W_247.5/004g006t089r000p...P...h18b100755N1 - Room Humidity: 20.21% Room Temp:83.69 F |
| 20260506234942 | KO5MO-4>APRS,TCPIP*,qAS,KO5MO-3:=3333.69N/11210.39W_292.5/003g004t090r000p...P...h18b100755N1 - Room Humidity: 20.21% Room Temp:83.69 F |
| 20260506235942 | KO5MO-4>APRS,TCPIP*,qAS,KO5MO-3:=3333.69N/11210.39W_337.5/005g005t089r000p...P...h17b100755N1 - Room Humidity: 20.21% Room Temp:83.69 F |
| 20260507001942 | KO5MO-4>APRS,TCPIP*,qAS,KO5MO-3:=3333.69N/11210.39W_202.5/004g004t090r000p...P...h17b100755N1 - Room Humidity: 20.21% Room Temp:83.69 F |
| 20260507002442 | KO5MO-4>APRS,TCPIP*,qAS,KO5MO-3:=3333.69N/11210.39W_247.5/002g002t089r000p...P...h17b100755N1 - Room Humidity: 20.21% Room Temp:83.69 F |
| 20260507002942 | KO5MO-4>APRS,TCPIP*,qAS,KO5MO-3:=3333.69N/11210.39W_202.5/003g004t090r000p...P...h17b100755N1 - Room Humidity: 20.21% Room Temp:83.69 F |
| 20260507004442 | KO5MO-4>APRS,TCPIP*,qAS,KO5MO-3:=3333.69N/11210.39W_292.5/003g002t087r000p...P...h18b100755N1 - Room Humidity: 20.21% Room Temp:83.69 F |
| 20260507005442 | KO5MO-4>APRS,TCPIP*,qAS,KO5MO-3:=3333.69N/11210.39W_157.5/000g001t087r000p...P...h18b100755N1 - Room Humidity: 20.21% Room Temp:83.69 F |
| 20260507010442 | KO5MO-4>APRS,TCPIP*,qAS,KO5MO-3:=3333.69N/11210.39W_202.5/003g002t086r000p...P...h18b100755N1 - Room Humidity: 20.21% Room Temp:83.69 F |